sensor_id;sensor_type;location;lat;lon;timestamp;temperature;humidity
3701;DHT22;1866;48.374;10.766;2023-02-28T00:01:45;-1.40;1.00
3701;DHT22;1866;48.374;10.766;2023-02-28T00:04:12;-1.40;1.00
3701;DHT22;1866;48.374;10.766;2023-02-28T00:06:39;-1.30;1.00
3701;DHT22;1866;48.374;10.766;2023-02-28T00:09:07;-1.30;1.00
3701;DHT22;1866;48.374;10.766;2023-02-28T00:11:34;-1.30;1.00
3701;DHT22;1866;48.374;10.766;2023-02-28T00:14:03;-1.30;1.00
3701;DHT22;1866;48.374;10.766;2023-02-28T00:16:31;-1.30;1.00
3701;DHT22;1866;48.374;10.766;2023-02-28T00:18:58;-1.40;1.00
3701;DHT22;1866;48.374;10.766;2023-02-28T00:21:25;-1.50;1.00
3701;DHT22;1866;48.374;10.766;2023-02-28T00:23:51;-1.50;1.00
3701;DHT22;1866;48.374;10.766;2023-02-28T00:26:18;-1.60;1.00
3701;DHT22;1866;48.374;10.766;2023-02-28T00:28:45;-1.50;1.00
3701;DHT22;1866;48.374;10.766;2023-02-28T00:31:12;-1.60;1.00
3701;DHT22;1866;48.374;10.766;2023-02-28T00:33:40;-1.70;1.00
3701;DHT22;1866;48.374;10.766;2023-02-28T00:36:09;-1.60;1.00
3701;DHT22;1866;48.374;10.766;2023-02-28T00:38:36;-1.70;1.00
3701;DHT22;1866;48.374;10.766;2023-02-28T00:41:03;-1.80;1.00
3701;DHT22;1866;48.374;10.766;2023-02-28T00:43:32;-1.80;1.00
3701;DHT22;1866;48.374;10.766;2023-02-28T00:45:58;-1.80;1.00
3701;DHT22;1866;48.374;10.766;2023-02-28T00:48:25;-1.80;1.00
3701;DHT22;1866;48.374;10.766;2023-02-28T00:50:54;-1.80;1.00
3701;DHT22;1866;48.374;10.766;2023-02-28T00:53:20;-1.80;1.00
3701;DHT22;1866;48.374;10.766;2023-02-28T00:55:48;-1.80;1.00
3701;DHT22;1866;48.374;10.766;2023-02-28T00:58:15;-1.70;1.00
3701;DHT22;1866;48.374;10.766;2023-02-28T01:00:42;-1.80;1.00
3701;DHT22;1866;48.374;10.766;2023-02-28T01:03:13;-1.70;1.00
3701;DHT22;1866;48.374;10.766;2023-02-28T01:05:40;-1.70;1.00
3701;DHT22;1866;48.374;10.766;2023-02-28T01:08:08;-1.70;1.00
3701;DHT22;1866;48.374;10.766;2023-02-28T01:10:35;-1.80;1.00
3701;DHT22;1866;48.374;10.766;2023-02-28T01:13:04;-1.80;1.00
3701;DHT22;1866;48.374;10.766;2023-02-28T01:15:30;-1.80;1.00
3701;DHT22;1866;48.374;10.766;2023-02-28T01:17:58;-1.80;1.00
3701;DHT22;1866;48.374;10.766;2023-02-28T01:20:25;-1.70;1.00
3701;DHT22;1866;48.374;10.766;2023-02-28T01:22:52;-1.80;1.00
3701;DHT22;1866;48.374;10.766;2023-02-28T01:25:20;-1.80;1.00
3701;DHT22;1866;48.374;10.766;2023-02-28T01:27:47;-1.80;1.00
3701;DHT22;1866;48.374;10.766;2023-02-28T01:30:14;-1.80;1.00
3701;DHT22;1866;48.374;10.766;2023-02-28T01:32:41;-1.80;1.00
3701;DHT22;1866;48.374;10.766;2023-02-28T01:35:08;-1.80;1.00
3701;DHT22;1866;48.374;10.766;2023-02-28T01:37:35;-1.80;1.00
3701;DHT22;1866;48.374;10.766;2023-02-28T01:40:02;-1.80;1.00
3701;DHT22;1866;48.374;10.766;2023-02-28T01:42:30;-1.80;1.00
3701;DHT22;1866;48.374;10.766;2023-02-28T01:45:00;-1.80;1.00
3701;DHT22;1866;48.374;10.766;2023-02-28T01:47:31;-1.90;1.00
3701;DHT22;1866;48.374;10.766;2023-02-28T01:50:02;-1.90;1.00
3701;DHT22;1866;48.374;10.766;2023-02-28T01:52:31;-1.90;1.00
3701;DHT22;1866;48.374;10.766;2023-02-28T01:55:00;-1.90;1.00
3701;DHT22;1866;48.374;10.766;2023-02-28T01:57:32;-1.90;1.00
3701;DHT22;1866;48.374;10.766;2023-02-28T02:00:05;-1.90;1.00
3701;DHT22;1866;48.374;10.766;2023-02-28T02:02:36;-1.90;1.00
3701;DHT22;1866;48.374;10.766;2023-02-28T02:05:05;-1.90;1.00
3701;DHT22;1866;48.374;10.766;2023-02-28T02:07:35;-2.00;1.00
3701;DHT22;1866;48.374;10.766;2023-02-28T02:10:06;-1.90;1.00
3701;DHT22;1866;48.374;10.766;2023-02-28T02:12:49;-1.90;1.00
3701;DHT22;1866;48.374;10.766;2023-02-28T02:15:22;-2.00;1.00
3701;DHT22;1866;48.374;10.766;2023-02-28T02:17:52;-2.00;1.00
3701;DHT22;1866;48.374;10.766;2023-02-28T02:20:52;-2.00;1.00
3701;DHT22;1866;48.374;10.766;2023-02-28T02:27:09;-2.00;1.00
3701;DHT22;1866;48.374;10.766;2023-02-28T02:29:52;-2.00;1.00
3701;DHT22;1866;48.374;10.766;2023-02-28T02:35:40;-2.00;1.00
3701;DHT22;1866;48.374;10.766;2023-02-28T02:38:13;-2.00;1.00
3701;DHT22;1866;48.374;10.766;2023-02-28T02:40:45;-2.10;1.00
3701;DHT22;1866;48.374;10.766;2023-02-28T02:43:16;-2.10;1.00
3701;DHT22;1866;48.374;10.766;2023-02-28T02:45:47;-2.00;1.00
3701;DHT22;1866;48.374;10.766;2023-02-28T02:48:19;-2.10;1.00
3701;DHT22;1866;48.374;10.766;2023-02-28T02:50:50;-2.10;1.00
3701;DHT22;1866;48.374;10.766;2023-02-28T02:53:21;-2.10;1.00
3701;DHT22;1866;48.374;10.766;2023-02-28T02:55:52;-2.10;1.00
3701;DHT22;1866;48.374;10.766;2023-02-28T02:58:23;-2.10;1.00
3701;DHT22;1866;48.374;10.766;2023-02-28T03:00:53;-2.10;1.00
3701;DHT22;1866;48.374;10.766;2023-02-28T03:03:21;-2.10;1.00
3701;DHT22;1866;48.374;10.766;2023-02-28T03:05:56;-2.10;1.00
3701;DHT22;1866;48.374;10.766;2023-02-28T03:08:23;-2.10;1.00
3701;DHT22;1866;48.374;10.766;2023-02-28T03:10:51;-2.10;1.00
3701;DHT22;1866;48.374;10.766;2023-02-28T03:16:36;-2.10;1.00
3701;DHT22;1866;48.374;10.766;2023-02-28T03:19:43;-2.10;1.00
3701;DHT22;1866;48.374;10.766;2023-02-28T03:25:07;-2.10;1.00
3701;DHT22;1866;48.374;10.766;2023-02-28T03:27:39;-2.10;1.00
3701;DHT22;1866;48.374;10.766;2023-02-28T03:30:10;-2.10;1.00
3701;DHT22;1866;48.374;10.766;2023-02-28T03:32:44;-2.10;1.00
3701;DHT22;1866;48.374;10.766;2023-02-28T03:35:18;-2.10;1.00
3701;DHT22;1866;48.374;10.766;2023-02-28T03:37:52;-2.10;1.00
3701;DHT22;1866;48.374;10.766;2023-02-28T03:40:22;-2.10;1.00
3701;DHT22;1866;48.374;10.766;2023-02-28T03:42:55;-2.10;1.00
3701;DHT22;1866;48.374;10.766;2023-02-28T03:45:26;-2.10;1.00
3701;DHT22;1866;48.374;10.766;2023-02-28T03:47:57;-2.10;1.00
3701;DHT22;1866;48.374;10.766;2023-02-28T03:50:29;-2.10;1.00
3701;DHT22;1866;48.374;10.766;2023-02-28T03:53:08;-2.10;1.00
3701;DHT22;1866;48.374;10.766;2023-02-28T03:55:39;-2.10;1.00
3701;DHT22;1866;48.374;10.766;2023-02-28T03:58:12;-2.10;1.00
3701;DHT22;1866;48.374;10.766;2023-02-28T04:00:46;-2.10;1.00
3701;DHT22;1866;48.374;10.766;2023-02-28T04:03:14;-2.10;1.00
3701;DHT22;1866;48.374;10.766;2023-02-28T04:05:48;-2.10;1.00
3701;DHT22;1866;48.374;10.766;2023-02-28T04:08:17;-2.10;1.00
3701;DHT22;1866;48.374;10.766;2023-02-28T04:10:48;-2.10;1.00
3701;DHT22;1866;48.374;10.766;2023-02-28T04:13:17;-2.10;1.00
3701;DHT22;1866;48.374;10.766;2023-02-28T04:15:43;-2.10;1.00
3701;DHT22;1866;48.374;10.766;2023-02-28T04:18:10;-2.10;1.00
3701;DHT22;1866;48.374;10.766;2023-02-28T04:20:37;-2.10;1.00
3701;DHT22;1866;48.374;10.766;2023-02-28T04:23:04;-2.10;1.00
3701;DHT22;1866;48.374;10.766;2023-02-28T04:25:32;-2.10;1.00
3701;DHT22;1866;48.374;10.766;2023-02-28T04:27:59;-2.10;1.00
3701;DHT22;1866;48.374;10.766;2023-02-28T04:30:25;-2.10;1.00
3701;DHT22;1866;48.374;10.766;2023-02-28T04:32:52;-2.20;1.00
3701;DHT22;1866;48.374;10.766;2023-02-28T04:35:19;-2.20;1.00
3701;DHT22;1866;48.374;10.766;2023-02-28T04:37:46;-2.10;1.00
3701;DHT22;1866;48.374;10.766;2023-02-28T04:40:13;-2.10;1.00
3701;DHT22;1866;48.374;10.766;2023-02-28T04:42:41;-2.20;1.00
3701;DHT22;1866;48.374;10.766;2023-02-28T04:45:09;-2.20;1.00
3701;DHT22;1866;48.374;10.766;2023-02-28T04:47:36;-2.20;1.00
3701;DHT22;1866;48.374;10.766;2023-02-28T04:50:03;-2.20;1.00
3701;DHT22;1866;48.374;10.766;2023-02-28T04:52:30;-2.20;1.00
3701;DHT22;1866;48.374;10.766;2023-02-28T04:54:57;-2.20;1.00
3701;DHT22;1866;48.374;10.766;2023-02-28T04:57:24;-2.20;1.00
3701;DHT22;1866;48.374;10.766;2023-02-28T04:59:52;-2.20;1.00
3701;DHT22;1866;48.374;10.766;2023-02-28T05:02:19;-2.20;1.00
3701;DHT22;1866;48.374;10.766;2023-02-28T05:04:46;-2.20;1.00
3701;DHT22;1866;48.374;10.766;2023-02-28T05:07:13;-2.20;1.00
3701;DHT22;1866;48.374;10.766;2023-02-28T05:09:40;-2.30;1.00
3701;DHT22;1866;48.374;10.766;2023-02-28T05:12:08;-2.30;1.00
3701;DHT22;1866;48.374;10.766;2023-02-28T05:14:35;-2.30;1.00
3701;DHT22;1866;48.374;10.766;2023-02-28T05:17:04;-2.30;1.00
3701;DHT22;1866;48.374;10.766;2023-02-28T05:19:30;-2.30;1.00
3701;DHT22;1866;48.374;10.766;2023-02-28T05:21:57;-2.30;1.00
3701;DHT22;1866;48.374;10.766;2023-02-28T05:24:24;-2.30;1.00
3701;DHT22;1866;48.374;10.766;2023-02-28T05:26:52;-2.30;1.00
3701;DHT22;1866;48.374;10.766;2023-02-28T05:29:20;-2.30;1.00
3701;DHT22;1866;48.374;10.766;2023-02-28T05:31:47;-2.30;1.00
3701;DHT22;1866;48.374;10.766;2023-02-28T05:34:15;-2.30;1.00
3701;DHT22;1866;48.374;10.766;2023-02-28T05:36:42;-2.30;1.00
3701;DHT22;1866;48.374;10.766;2023-02-28T05:39:09;-2.30;1.00
3701;DHT22;1866;48.374;10.766;2023-02-28T05:41:39;-2.30;1.00
3701;DHT22;1866;48.374;10.766;2023-02-28T05:44:06;-2.30;1.00
3701;DHT22;1866;48.374;10.766;2023-02-28T05:46:33;-2.30;1.00
3701;DHT22;1866;48.374;10.766;2023-02-28T05:49:00;-2.30;1.00
3701;DHT22;1866;48.374;10.766;2023-02-28T05:51:28;-2.30;1.00
3701;DHT22;1866;48.374;10.766;2023-02-28T05:53:59;-2.30;1.00
3701;DHT22;1866;48.374;10.766;2023-02-28T05:56:26;-2.30;1.00
3701;DHT22;1866;48.374;10.766;2023-02-28T05:58:53;-2.30;1.00
3701;DHT22;1866;48.374;10.766;2023-02-28T06:01:22;-2.30;1.00
3701;DHT22;1866;48.374;10.766;2023-02-28T06:03:49;-2.30;1.00
3701;DHT22;1866;48.374;10.766;2023-02-28T06:06:16;-2.30;1.00
3701;DHT22;1866;48.374;10.766;2023-02-28T06:08:45;-2.40;1.00
3701;DHT22;1866;48.374;10.766;2023-02-28T06:11:12;-2.30;1.00
3701;DHT22;1866;48.374;10.766;2023-02-28T06:13:39;-2.30;1.00
3701;DHT22;1866;48.374;10.766;2023-02-28T06:16:07;-2.40;1.00
3701;DHT22;1866;48.374;10.766;2023-02-28T06:18:34;-2.40;1.00
3701;DHT22;1866;48.374;10.766;2023-02-28T06:21:02;-2.40;1.00
3701;DHT22;1866;48.374;10.766;2023-02-28T06:23:29;-2.30;1.00
3701;DHT22;1866;48.374;10.766;2023-02-28T06:25:57;-2.40;1.00
3701;DHT22;1866;48.374;10.766;2023-02-28T06:28:24;-2.30;1.00
3701;DHT22;1866;48.374;10.766;2023-02-28T06:30:51;-2.30;1.00
3701;DHT22;1866;48.374;10.766;2023-02-28T06:33:18;-2.40;1.00
3701;DHT22;1866;48.374;10.766;2023-02-28T06:35:46;-2.40;1.00
3701;DHT22;1866;48.374;10.766;2023-02-28T06:38:13;-2.40;1.00
3701;DHT22;1866;48.374;10.766;2023-02-28T06:40:40;-2.30;1.00
3701;DHT22;1866;48.374;10.766;2023-02-28T06:43:08;-2.30;1.00
3701;DHT22;1866;48.374;10.766;2023-02-28T06:45:41;-2.30;1.00
3701;DHT22;1866;48.374;10.766;2023-02-28T06:48:09;-2.30;1.00
3701;DHT22;1866;48.374;10.766;2023-02-28T06:50:36;-2.30;1.00
3701;DHT22;1866;48.374;10.766;2023-02-28T06:53:03;-2.30;1.00
3701;DHT22;1866;48.374;10.766;2023-02-28T06:55:30;-2.20;1.00
3701;DHT22;1866;48.374;10.766;2023-02-28T06:57:57;-2.20;1.00
3701;DHT22;1866;48.374;10.766;2023-02-28T07:00:25;-2.30;1.00
3701;DHT22;1866;48.374;10.766;2023-02-28T07:02:52;-2.30;1.00
3701;DHT22;1866;48.374;10.766;2023-02-28T07:05:20;-2.30;1.00
3701;DHT22;1866;48.374;10.766;2023-02-28T07:07:47;-2.20;1.00
3701;DHT22;1866;48.374;10.766;2023-02-28T07:10:14;-2.30;1.00
3701;DHT22;1866;48.374;10.766;2023-02-28T07:12:42;-2.20;1.00
3701;DHT22;1866;48.374;10.766;2023-02-28T07:15:10;-2.20;1.00
3701;DHT22;1866;48.374;10.766;2023-02-28T07:17:38;-2.30;1.00
3701;DHT22;1866;48.374;10.766;2023-02-28T07:20:06;-2.30;1.00
3701;DHT22;1866;48.374;10.766;2023-02-28T07:22:33;-2.30;1.00
3701;DHT22;1866;48.374;10.766;2023-02-28T07:25:00;-2.30;1.00
3701;DHT22;1866;48.374;10.766;2023-02-28T07:27:27;-2.30;1.00
3701;DHT22;1866;48.374;10.766;2023-02-28T07:29:54;-2.20;1.00
3701;DHT22;1866;48.374;10.766;2023-02-28T07:32:21;-2.10;1.00
3701;DHT22;1866;48.374;10.766;2023-02-28T07:34:49;-2.20;1.00
3701;DHT22;1866;48.374;10.766;2023-02-28T07:37:16;-2.20;1.00
3701;DHT22;1866;48.374;10.766;2023-02-28T07:39:43;-2.20;1.00
3701;DHT22;1866;48.374;10.766;2023-02-28T07:42:10;-2.10;1.00
3701;DHT22;1866;48.374;10.766;2023-02-28T07:44:37;-2.20;1.00
3701;DHT22;1866;48.374;10.766;2023-02-28T07:47:06;-2.20;1.00
3701;DHT22;1866;48.374;10.766;2023-02-28T07:49:34;-2.10;1.00
3701;DHT22;1866;48.374;10.766;2023-02-28T07:52:02;-2.10;1.00
3701;DHT22;1866;48.374;10.766;2023-02-28T07:54:29;-2.00;1.00
3701;DHT22;1866;48.374;10.766;2023-02-28T07:56:56;-2.00;1.00
3701;DHT22;1866;48.374;10.766;2023-02-28T07:59:23;-2.00;1.00
3701;DHT22;1866;48.374;10.766;2023-02-28T08:01:50;-2.00;1.00
3701;DHT22;1866;48.374;10.766;2023-02-28T08:04:18;-2.00;1.00
3701;DHT22;1866;48.374;10.766;2023-02-28T08:06:45;-1.90;1.00
3701;DHT22;1866;48.374;10.766;2023-02-28T08:09:14;-1.70;1.00
3701;DHT22;1866;48.374;10.766;2023-02-28T08:11:41;-1.60;1.00
3701;DHT22;1866;48.374;10.766;2023-02-28T08:14:07;-1.60;1.00
3701;DHT22;1866;48.374;10.766;2023-02-28T08:16:34;-1.60;1.00
3701;DHT22;1866;48.374;10.766;2023-02-28T08:19:01;-1.60;1.00
3701;DHT22;1866;48.374;10.766;2023-02-28T08:21:28;-1.50;1.00
3701;DHT22;1866;48.374;10.766;2023-02-28T08:23:55;-1.30;1.00
3701;DHT22;1866;48.374;10.766;2023-02-28T08:26:23;-1.40;1.00
3701;DHT22;1866;48.374;10.766;2023-02-28T08:28:51;-1.40;1.00
3701;DHT22;1866;48.374;10.766;2023-02-28T08:31:18;-1.20;1.00
3701;DHT22;1866;48.374;10.766;2023-02-28T08:33:45;-1.10;1.00
3701;DHT22;1866;48.374;10.766;2023-02-28T08:36:14;-1.20;1.00
3701;DHT22;1866;48.374;10.766;2023-02-28T08:38:42;-1.10;1.00
3701;DHT22;1866;48.374;10.766;2023-02-28T08:41:11;-1.00;1.00
3701;DHT22;1866;48.374;10.766;2023-02-28T08:43:40;-1.30;1.00
3701;DHT22;1866;48.374;10.766;2023-02-28T08:46:08;-1.20;1.00
3701;DHT22;1866;48.374;10.766;2023-02-28T08:48:36;-1.00;1.00
3701;DHT22;1866;48.374;10.766;2023-02-28T08:51:06;-0.90;1.00
3701;DHT22;1866;48.374;10.766;2023-02-28T08:53:34;-1.00;1.00
3701;DHT22;1866;48.374;10.766;2023-02-28T08:56:03;-1.00;1.00
3701;DHT22;1866;48.374;10.766;2023-02-28T08:58:30;-0.90;1.00
3701;DHT22;1866;48.374;10.766;2023-02-28T09:00:58;-0.80;1.00
3701;DHT22;1866;48.374;10.766;2023-02-28T09:03:25;-0.70;1.00
3701;DHT22;1866;48.374;10.766;2023-02-28T09:05:54;-0.50;1.00
3701;DHT22;1866;48.374;10.766;2023-02-28T09:08:22;-0.50;1.00
3701;DHT22;1866;48.374;10.766;2023-02-28T09:10:49;-0.70;1.00
3701;DHT22;1866;48.374;10.766;2023-02-28T09:13:16;-0.70;1.00
3701;DHT22;1866;48.374;10.766;2023-02-28T09:15:43;-0.60;1.00
3701;DHT22;1866;48.374;10.766;2023-02-28T09:18:12;-0.40;1.00
3701;DHT22;1866;48.374;10.766;2023-02-28T09:20:39;-0.40;1.00
3701;DHT22;1866;48.374;10.766;2023-02-28T09:23:06;-0.40;1.00
3701;DHT22;1866;48.374;10.766;2023-02-28T09:25:34;-0.30;1.00
3701;DHT22;1866;48.374;10.766;2023-02-28T09:28:01;-0.20;1.00
3701;DHT22;1866;48.374;10.766;2023-02-28T09:30:28;0.00;1.00
3701;DHT22;1866;48.374;10.766;2023-02-28T09:32:55;0.10;1.00
3701;DHT22;1866;48.374;10.766;2023-02-28T09:35:24;0.00;1.00
3701;DHT22;1866;48.374;10.766;2023-02-28T09:37:53;-0.10;1.00
3701;DHT22;1866;48.374;10.766;2023-02-28T09:40:22;-0.10;1.00
3701;DHT22;1866;48.374;10.766;2023-02-28T09:42:53;-0.10;1.00
3701;DHT22;1866;48.374;10.766;2023-02-28T09:45:24;0.10;1.00
3701;DHT22;1866;48.374;10.766;2023-02-28T09:47:55;0.20;1.00
3701;DHT22;1866;48.374;10.766;2023-02-28T09:50:34;0.10;1.00
3701;DHT22;1866;48.374;10.766;2023-02-28T09:53:06;0.10;1.00
3701;DHT22;1866;48.374;10.766;2023-02-28T09:55:41;0.60;1.00
3701;DHT22;1866;48.374;10.766;2023-02-28T09:58:18;0.60;1.00
3701;DHT22;1866;48.374;10.766;2023-02-28T10:00:52;0.50;1.00
3701;DHT22;1866;48.374;10.766;2023-02-28T10:03:29;0.40;1.00
3701;DHT22;1866;48.374;10.766;2023-02-28T10:06:05;0.40;1.00
3701;DHT22;1866;48.374;10.766;2023-02-28T10:08:37;0.50;1.00
3701;DHT22;1866;48.374;10.766;2023-02-28T10:11:09;0.60;1.00
3701;DHT22;1866;48.374;10.766;2023-02-28T10:13:41;1.00;1.00
3701;DHT22;1866;48.374;10.766;2023-02-28T10:16:16;1.20;1.00
3701;DHT22;1866;48.374;10.766;2023-02-28T10:18:49;1.20;1.00
3701;DHT22;1866;48.374;10.766;2023-02-28T10:21:23;1.30;1.00
3701;DHT22;1866;48.374;10.766;2023-02-28T10:23:56;1.20;1.00
3701;DHT22;1866;48.374;10.766;2023-02-28T10:26:26;1.00;1.00
3701;DHT22;1866;48.374;10.766;2023-02-28T10:28:55;0.60;1.00
3701;DHT22;1866;48.374;10.766;2023-02-28T10:31:21;0.80;1.00
3701;DHT22;1866;48.374;10.766;2023-02-28T10:33:48;1.20;1.00
3701;DHT22;1866;48.374;10.766;2023-02-28T10:36:17;1.30;1.00
3701;DHT22;1866;48.374;10.766;2023-02-28T10:38:46;1.30;1.00
3701;DHT22;1866;48.374;10.766;2023-02-28T10:41:15;1.10;1.00
3701;DHT22;1866;48.374;10.766;2023-02-28T10:43:43;1.30;1.00
3701;DHT22;1866;48.374;10.766;2023-02-28T10:46:13;1.60;1.00
3701;DHT22;1866;48.374;10.766;2023-02-28T10:49:00;1.60;1.00
3701;DHT22;1866;48.374;10.766;2023-02-28T10:51:35;1.60;1.00
3701;DHT22;1866;48.374;10.766;2023-02-28T10:54:04;1.80;1.00
3701;DHT22;1866;48.374;10.766;2023-02-28T10:56:32;1.50;1.00
3701;DHT22;1866;48.374;10.766;2023-02-28T10:59:01;1.70;1.00
3701;DHT22;1866;48.374;10.766;2023-02-28T11:01:37;1.90;1.00
3701;DHT22;1866;48.374;10.766;2023-02-28T11:04:17;2.00;1.00
3701;DHT22;1866;48.374;10.766;2023-02-28T11:06:44;2.00;1.00
3701;DHT22;1866;48.374;10.766;2023-02-28T11:09:21;2.20;1.00
3701;DHT22;1866;48.374;10.766;2023-02-28T11:11:49;2.10;1.00
3701;DHT22;1866;48.374;10.766;2023-02-28T11:14:20;2.00;1.00
3701;DHT22;1866;48.374;10.766;2023-02-28T11:16:48;2.20;1.00
3701;DHT22;1866;48.374;10.766;2023-02-28T11:19:20;2.10;1.00
3701;DHT22;1866;48.374;10.766;2023-02-28T11:21:52;2.10;1.00
3701;DHT22;1866;48.374;10.766;2023-02-28T11:24:24;2.10;1.00
3701;DHT22;1866;48.374;10.766;2023-02-28T11:26:53;2.20;1.00
3701;DHT22;1866;48.374;10.766;2023-02-28T11:29:22;2.20;1.00
3701;DHT22;1866;48.374;10.766;2023-02-28T11:32:12;2.40;1.00
3701;DHT22;1866;48.374;10.766;2023-02-28T11:34:42;2.40;1.00
3701;DHT22;1866;48.374;10.766;2023-02-28T11:37:13;2.20;1.00
3701;DHT22;1866;48.374;10.766;2023-02-28T11:39:41;2.50;1.00
3701;DHT22;1866;48.374;10.766;2023-02-28T11:42:22;2.50;1.00
3701;DHT22;1866;48.374;10.766;2023-02-28T11:45:01;2.50;1.00
3701;DHT22;1866;48.374;10.766;2023-02-28T11:47:38;2.30;1.00
3701;DHT22;1866;48.374;10.766;2023-02-28T11:50:22;2.30;1.00
3701;DHT22;1866;48.374;10.766;2023-02-28T11:52:56;2.50;1.00
3701;DHT22;1866;48.374;10.766;2023-02-28T11:55:27;2.50;1.00
3701;DHT22;1866;48.374;10.766;2023-02-28T11:58:13;2.60;1.00
3701;DHT22;1866;48.374;10.766;2023-02-28T12:01:11;2.60;1.00
3701;DHT22;1866;48.374;10.766;2023-02-28T12:03:45;2.60;1.00
3701;DHT22;1866;48.374;10.766;2023-02-28T12:06:20;2.30;1.00
3701;DHT22;1866;48.374;10.766;2023-02-28T12:09:11;2.80;1.00
3701;DHT22;1866;48.374;10.766;2023-02-28T12:11:51;2.80;1.00
3701;DHT22;1866;48.374;10.766;2023-02-28T12:17:22;2.90;1.00
3701;DHT22;1866;48.374;10.766;2023-02-28T12:20:00;3.00;1.00
3701;DHT22;1866;48.374;10.766;2023-02-28T12:22:30;2.80;1.00
3701;DHT22;1866;48.374;10.766;2023-02-28T12:28:00;3.00;1.00
3701;DHT22;1866;48.374;10.766;2023-02-28T12:30:29;3.20;1.00
3701;DHT22;1866;48.374;10.766;2023-02-28T12:33:03;3.00;1.00
3701;DHT22;1866;48.374;10.766;2023-02-28T12:35:34;3.00;1.00
3701;DHT22;1866;48.374;10.766;2023-02-28T12:38:06;3.00;1.00
3701;DHT22;1866;48.374;10.766;2023-02-28T12:40:43;3.10;1.00
3701;DHT22;1866;48.374;10.766;2023-02-28T12:43:13;3.10;1.00
3701;DHT22;1866;48.374;10.766;2023-02-28T12:45:43;3.20;1.00
3701;DHT22;1866;48.374;10.766;2023-02-28T12:48:16;3.20;1.00
3701;DHT22;1866;48.374;10.766;2023-02-28T12:50:45;3.30;1.00
3701;DHT22;1866;48.374;10.766;2023-02-28T12:53:20;3.00;1.00
3701;DHT22;1866;48.374;10.766;2023-02-28T12:55:50;3.40;1.00
3701;DHT22;1866;48.374;10.766;2023-02-28T12:58:27;3.50;1.00
3701;DHT22;1866;48.374;10.766;2023-02-28T13:01:17;3.40;1.00
3701;DHT22;1866;48.374;10.766;2023-02-28T13:04:13;3.40;1.00
3701;DHT22;1866;48.374;10.766;2023-02-28T13:07:00;3.40;1.00
3701;DHT22;1866;48.374;10.766;2023-02-28T13:09:30;3.50;1.00
3701;DHT22;1866;48.374;10.766;2023-02-28T13:11:57;3.20;1.00
3701;DHT22;1866;48.374;10.766;2023-02-28T13:14:29;3.20;1.00
3701;DHT22;1866;48.374;10.766;2023-02-28T13:17:02;3.50;1.00
3701;DHT22;1866;48.374;10.766;2023-02-28T13:19:31;3.20;1.00
3701;DHT22;1866;48.374;10.766;2023-02-28T13:21:59;3.50;1.00
3701;DHT22;1866;48.374;10.766;2023-02-28T13:24:47;3.80;1.00
3701;DHT22;1866;48.374;10.766;2023-02-28T13:27:32;3.60;1.00
3701;DHT22;1866;48.374;10.766;2023-02-28T13:30:49;3.80;1.00
3701;DHT22;1866;48.374;10.766;2023-02-28T13:33:21;3.80;1.00
3701;DHT22;1866;48.374;10.766;2023-02-28T13:35:50;3.80;1.00
3701;DHT22;1866;48.374;10.766;2023-02-28T13:38:40;3.70;1.00
3701;DHT22;1866;48.374;10.766;2023-02-28T13:41:45;3.60;1.00
3701;DHT22;1866;48.374;10.766;2023-02-28T13:44:14;3.10;1.00
3701;DHT22;1866;48.374;10.766;2023-02-28T13:50:16;3.50;1.00
3701;DHT22;1866;48.374;10.766;2023-02-28T13:55:37;3.50;1.00
3701;DHT22;1866;48.374;10.766;2023-02-28T13:58:19;3.20;1.00
3701;DHT22;1866;48.374;10.766;2023-02-28T14:01:08;3.40;1.00
3701;DHT22;1866;48.374;10.766;2023-02-28T14:03:49;3.30;1.00
3701;DHT22;1866;48.374;10.766;2023-02-28T14:06:25;3.00;1.00
3701;DHT22;1866;48.374;10.766;2023-02-28T14:08:57;3.10;1.00
3701;DHT22;1866;48.374;10.766;2023-02-28T14:11:31;3.10;1.00
3701;DHT22;1866;48.374;10.766;2023-02-28T14:13:59;3.00;1.00
3701;DHT22;1866;48.374;10.766;2023-02-28T14:16:27;3.10;1.00
3701;DHT22;1866;48.374;10.766;2023-02-28T14:19:03;3.30;1.00
3701;DHT22;1866;48.374;10.766;2023-02-28T14:21:42;3.50;1.00
3701;DHT22;1866;48.374;10.766;2023-02-28T14:24:46;3.50;1.00
3701;DHT22;1866;48.374;10.766;2023-02-28T14:27:31;3.50;1.00
3701;DHT22;1866;48.374;10.766;2023-02-28T14:30:15;3.50;1.00
3701;DHT22;1866;48.374;10.766;2023-02-28T14:32:51;3.60;1.00
3701;DHT22;1866;48.374;10.766;2023-02-28T14:35:35;3.60;1.00
3701;DHT22;1866;48.374;10.766;2023-02-28T14:38:14;3.70;1.00
3701;DHT22;1866;48.374;10.766;2023-02-28T14:40:45;3.60;1.00
3701;DHT22;1866;48.374;10.766;2023-02-28T14:43:20;3.80;1.00
3701;DHT22;1866;48.374;10.766;2023-02-28T14:45:50;3.80;1.00
3701;DHT22;1866;48.374;10.766;2023-02-28T14:48:18;3.80;1.00
3701;DHT22;1866;48.374;10.766;2023-02-28T14:50:49;3.80;1.00
3701;DHT22;1866;48.374;10.766;2023-02-28T14:53:21;3.90;1.00
3701;DHT22;1866;48.374;10.766;2023-02-28T14:55:49;3.80;1.00
3701;DHT22;1866;48.374;10.766;2023-02-28T14:58:23;3.90;1.00
3701;DHT22;1866;48.374;10.766;2023-02-28T15:00:51;3.90;1.00
3701;DHT22;1866;48.374;10.766;2023-02-28T15:03:21;3.80;1.00
3701;DHT22;1866;48.374;10.766;2023-02-28T15:05:53;3.70;1.00
3701;DHT22;1866;48.374;10.766;2023-02-28T15:08:21;3.60;1.00
3701;DHT22;1866;48.374;10.766;2023-02-28T15:10:53;3.60;1.00
3701;DHT22;1866;48.374;10.766;2023-02-28T15:13:22;3.60;1.00
3701;DHT22;1866;48.374;10.766;2023-02-28T15:15:52;3.50;1.00
3701;DHT22;1866;48.374;10.766;2023-02-28T15:18:31;3.40;1.00
3701;DHT22;1866;48.374;10.766;2023-02-28T15:21:03;3.40;1.00
3701;DHT22;1866;48.374;10.766;2023-02-28T15:23:32;3.40;1.00
3701;DHT22;1866;48.374;10.766;2023-02-28T15:26:00;3.30;1.00
3701;DHT22;1866;48.374;10.766;2023-02-28T15:28:28;3.20;1.00
3701;DHT22;1866;48.374;10.766;2023-02-28T15:30:57;3.10;1.00
3701;DHT22;1866;48.374;10.766;2023-02-28T15:33:25;3.10;1.00
3701;DHT22;1866;48.374;10.766;2023-02-28T15:36:05;3.10;1.00
3701;DHT22;1866;48.374;10.766;2023-02-28T15:38:35;3.20;1.00
3701;DHT22;1866;48.374;10.766;2023-02-28T15:41:03;3.20;1.00
3701;DHT22;1866;48.374;10.766;2023-02-28T15:43:35;3.20;1.00
3701;DHT22;1866;48.374;10.766;2023-02-28T15:46:03;3.10;1.00
3701;DHT22;1866;48.374;10.766;2023-02-28T15:48:33;3.10;1.00
3701;DHT22;1866;48.374;10.766;2023-02-28T15:51:05;3.10;1.00
3701;DHT22;1866;48.374;10.766;2023-02-28T15:53:36;3.10;1.00
3701;DHT22;1866;48.374;10.766;2023-02-28T15:56:06;3.10;
3701;DHT22;1866;48.374;10.766;2023-02-28T15:58:39;3.00;1.00
3701;DHT22;1866;48.374;10.766;2023-02-28T16:01:18;3.00;1.00
3701;DHT22;1866;48.374;10.766;2023-02-28T16:03:48;3.00;1.00
3701;DHT22;1866;48.374;10.766;2023-02-28T16:06:42;2.90;1.00
3701;DHT22;1866;48.374;10.766;2023-02-28T16:09:13;2.80;1.00
3701;DHT22;1866;48.374;10.766;2023-02-28T16:11:43;2.70;1.00
3701;DHT22;1866;48.374;10.766;2023-02-28T16:14:17;2.70;1.00
3701;DHT22;1866;48.374;10.766;2023-02-28T16:16:45;2.70;1.00
3701;DHT22;1866;48.374;10.766;2023-02-28T16:19:13;2.70;1.00
3701;DHT22;1866;48.374;10.766;2023-02-28T16:21:39;2.60;1.00
3701;DHT22;1866;48.374;10.766;2023-02-28T16:24:07;2.60;1.00
3701;DHT22;1866;48.374;10.766;2023-02-28T16:26:36;2.50;1.00
3701;DHT22;1866;48.374;10.766;2023-02-28T16:29:05;2.50;1.00
3701;DHT22;1866;48.374;10.766;2023-02-28T16:31:35;2.40;1.00
3701;DHT22;1866;48.374;10.766;2023-02-28T16:34:03;2.40;1.00
3701;DHT22;1866;48.374;10.766;2023-02-28T16:36:31;2.30;1.00
3701;DHT22;1866;48.374;10.766;2023-02-28T16:38:58;2.30;1.00
3701;DHT22;1866;48.374;10.766;2023-02-28T16:41:26;2.20;1.00
3701;DHT22;1866;48.374;10.766;2023-02-28T16:43:56;2.30;1.00
3701;DHT22;1866;48.374;10.766;2023-02-28T16:46:29;2.30;1.00
3701;DHT22;1866;48.374;10.766;2023-02-28T16:48:56;2.20;1.00
3701;DHT22;1866;48.374;10.766;2023-02-28T16:51:23;2.10;1.00
3701;DHT22;1866;48.374;10.766;2023-02-28T16:53:50;2.00;1.00
3701;DHT22;1866;48.374;10.766;2023-02-28T16:56:19;1.90;1.00
3701;DHT22;1866;48.374;10.766;2023-02-28T16:58:47;1.90;1.00